Terminal Aerodrome Forecast
Issued by NWS Chicago, IL

Home | Current Version | Previous Version | Graphics & Text | Print | Product List | Glossary On
Versions: 1 2 3 4 5 6 7 8 9 10 11 12 13 14 15 16 17 18 19 20 21 22 23 24 25 26 27 28 29
752
FTUS43 KLOT 261120
TAFRFD
TAF
KRFD 261120Z 2612/2712 18012G18KT 6SM -SHRA BKN050
      TEMPO 2612/2615 5SM -TSRA BKN025 OVC050CB
     FM261500 20012G18KT P6SM VCSH SCT025 BKN040
     FM262100 25012KT 5SM SHRA VCTS BKN015 OVC035CB
     FM270100 32012KT 3SM SHRA BR OVC010
     FM270600 29010KT 6SM -SHRA OVC008=

USA.gov is the U.S. government's official web portal to all federal, state and local government web resources and services.